Time;durP1;ratioP1;P1;durP2;ratioP2;P2;SDS_P1;SDS_P2;PMS_P1;PMS_P2;Temp;Humidity;BMP_temperature;BMP_pressure;BME280_temperature;BME280_humidity;BME280_pressure;Samples;Min_cycle;Max_cycle;Signal;HPM_P1;HPM_P2
2023/08/06 00:00:22;;;;;;;9.53;8.13;;;21.50;99.90;;;;;;5126354;27;20556;-80
2023/08/06 00:02:48;;;;;;;9.83;8.40;;;21.50;99.90;;;;;;5108250;28;20459;-78
2023/08/06 00:05:17;;;;;;;9.83;8.83;;;21.50;99.90;;;;;;5107734;28;20434;-81
2023/08/06 00:07:45;;;;;;;11.30;8.50;;;21.50;99.90;;;;;;5126298;28;20469;-78
2023/08/06 00:10:11;;;;;;;10.57;8.73;;;21.50;99.90;;;;;;5107553;28;20435;-81
2023/08/06 00:12:36;;;;;;;9.50;8.60;;;21.50;99.90;;;;;;5108020;28;20776;-78
2023/08/06 00:15:02;;;;;;;9.13;8.10;;;21.50;99.90;;;;;;5125956;27;20488;-78
2023/08/06 00:17:28;;;;;;;9.77;8.77;;;21.40;99.90;;;;;;5108263;28;20274;-79
2023/08/06 00:19:54;;;;;;;8.37;7.40;;;21.40;99.90;;;;;;5109264;28;20947;-78
2023/08/06 00:22:20;;;;;;;8.23;7.33;;;21.30;99.90;;;;;;5126398;28;20215;-78
2023/08/06 00:24:45;;;;;;;10.70;7.70;;;21.20;99.90;;;;;;5107779;28;20701;-79
2023/08/06 00:27:11;;;;;;;9.83;7.70;;;21.10;99.90;;;;;;5108013;28;20442;-78
2023/08/06 00:29:37;;;;;;;7.17;6.47;;;21.00;99.90;;;;;;5107588;28;20258;-81
2023/08/06 00:32:02;;;;;;;7.90;7.20;;;21.00;99.90;;;;;;5107658;28;20218;-81
2023/08/06 00:34:28;;;;;;;7.40;6.50;;;20.90;99.90;;;;;;5107564;28;20206;-80
2023/08/06 00:36:54;;;;;;;7.60;6.80;;;20.80;99.90;;;;;;5107474;28;20467;-78
2023/08/06 00:39:20;;;;;;;7.63;6.73;;;20.80;99.90;;;;;;5125181;27;20203;-81
2023/08/06 00:41:46;;;;;;;7.90;7.10;;;20.80;99.90;;;;;;5107539;28;20178;-81
2023/08/06 00:44:11;;;;;;;7.73;6.90;;;20.80;99.90;;;;;;5110377;27;20259;-81
2023/08/06 00:46:37;;;;;;;7.50;5.90;;;20.70;99.90;;;;;;5129818;27;20426;-81
2023/08/06 00:49:04;;;;;;;7.30;6.60;;;20.70;99.90;;;;;;5111699;27;20441;-80
2023/08/06 00:51:30;;;;;;;8.03;6.37;;;20.70;99.90;;;;;;5129676;27;20186;-77
2023/08/06 00:53:56;;;;;;;8.33;6.80;;;20.60;99.90;;;;;;5111494;27;20403;-77
2023/08/06 00:56:22;;;;;;;7.20;6.50;;;20.70;99.90;;;;;;5111086;27;20964;-77
2023/08/06 00:58:48;;;;;;;6.20;5.60;;;20.80;99.90;;;;;;5128799;27;20191;-79
2023/08/06 01:01:14;;;;;;;8.30;5.57;;;20.70;99.90;;;;;;5129797;27;20781;-80
2023/08/06 01:03:40;;;;;;;6.27;5.00;;;20.70;99.90;;;;;;5129673;27;20693;-80
2023/08/06 01:06:06;;;;;;;5.47;4.67;;;20.70;99.90;;;;;;5110899;27;20435;-77
2023/08/06 01:08:53;;;;;;;4.77;4.00;;;20.60;99.90;;;;;;5111382;27;20179;-80
2023/08/06 01:11:27;;;;;;;5.80;4.73;;;20.60;99.90;;;;;;5129694;27;20981;-77
2023/08/06 01:14:02;;;;;;;5.93;5.10;;;20.50;99.90;;;;;;5129824;27;20392;-76
2023/08/06 01:16:30;;;;;;;5.67;4.97;;;20.50;99.90;;;;;;5129290;27;20446;-80
2023/08/06 01:18:58;;;;;;;4.13;3.60;;;20.50;99.90;;;;;;5110779;27;20419;-77
2023/08/06 01:21:23;;;;;;;4.80;4.30;;;20.50;99.90;;;;;;5110644;27;20787;-80
2023/08/06 01:23:50;;;;;;;4.47;4.07;;;20.50;99.90;;;;;;5111203;27;20466;-77
2023/08/06 01:26:42;;;;;;;5.13;4.53;;;20.50;99.90;;;;;;5110476;27;20206;-80
2023/08/06 01:29:17;;;;;;;5.97;4.87;;;20.50;99.90;;;;;;5129442;27;20917;-77
2023/08/06 01:31:47;;;;;;;5.20;4.80;;;20.50;99.90;;;;;;5129160;27;20495;-77
2023/08/06 01:34:25;;;;;;;6.53;4.63;;;20.60;99.90;;;;;;5129138;27;20475;-80
2023/08/06 01:36:52;;;;;;;5.20;4.70;;;20.60;99.90;;;;;;5110064;27;20419;-80
2023/08/06 01:39:20;;;;;;;8.80;4.10;;;20.70;99.90;;;;;;5109697;27;20463;-77
2023/08/06 01:41:47;;;;;;;5.47;4.50;;;20.70;99.90;;;;;;5128872;27;20428;-77
2023/08/06 01:44:14;;;;;;;4.37;3.97;;;20.60;99.90;;;;;;5128846;27;20853;-76
2023/08/06 01:46:40;;;;;;;4.97;4.53;;;20.60;99.90;;;;;;5128826;27;20950;-80
2023/08/06 01:49:06;;;;;;;5.27;4.77;;;20.50;99.90;;;;;;5129198;27;20793;-80
2023/08/06 01:51:32;;;;;;;4.40;4.00;;;20.50;99.90;;;;;;5110195;27;20426;-80
2023/08/06 01:53:58;;;;;;;5.87;4.83;;;20.50;99.90;;;;;;5110394;27;20321;-80
2023/08/06 01:56:24;;;;;;;5.63;5.13;;;20.50;99.90;;;;;;5108763;27;20975;-80
2023/08/06 01:58:49;;;;;;;5.40;4.90;;;20.60;99.90;;;;;;5128902;27;20171;-79
2023/08/06 02:01:15;;;;;;;6.10;4.87;;;20.60;99.90;;;;;;5128372;27;20222;-77
2023/08/06 02:03:41;;;;;;;5.60;5.00;;;20.60;99.90;;;;;;5128442;27;20229;-78
2023/08/06 02:06:06;;;;;;;5.93;5.30;;;20.60;99.90;;;;;;5127938;27;20206;-78
2023/08/06 02:08:32;;;;;;;5.83;5.33;;;20.60;99.90;;;;;;5128481;27;20182;-80
2023/08/06 02:10:58;;;;;;;6.07;5.47;;;20.60;99.90;;;;;;5128023;27;20195;-77
2023/08/06 02:13:24;;;;;;;5.90;5.30;;;20.60;99.90;;;;;;5110316;27;20185;-80
2023/08/06 02:15:49;;;;;;;5.87;5.10;;;20.60;99.90;;;;;;5127934;27;20423;-80
2023/08/06 02:18:16;;;;;;;6.47;5.87;;;20.60;99.90;;;;;;5110270;27;20178;-77
2023/08/06 02:20:42;;;;;;;6.73;6.00;;;20.60;99.90;;;;;;5127905;27;20237;-77
2023/08/06 02:23:09;;;;;;;6.77;5.57;;;20.70;99.90;;;;;;5109679;27;20550;-80
2023/08/06 02:25:35;;;;;;;6.43;5.70;;;20.70;99.90;;;;;;5109148;27;20784;-77
2023/08/06 02:28:02;;;;;;;6.70;6.10;;;20.80;99.90;;;;;;5126820;27;20442;-77
2023/08/06 02:30:27;;;;;;;7.07;6.37;;;20.80;99.90;;;;;;5109432;27;20458;-80
2023/08/06 02:32:53;;;;;;;6.90;6.30;;;20.80;99.90;;;;;;5128689;27;21198;-77
2023/08/06 02:35:19;;;;;;;10.07;6.33;;;20.80;99.90;;;;;;5109145;27;20267;-77
2023/08/06 02:37:45;;;;;;;7.13;6.40;;;20.80;99.90;;;;;;5126763;27;20470;-80
2023/08/06 02:40:11;;;;;;;7.80;7.00;;;20.80;99.90;;;;;;5127647;27;20195;-77
2023/08/06 02:42:37;;;;;;;7.70;7.00;;;20.80;99.90;;;;;;5127329;27;20235;-77
2023/08/06 02:45:03;;;;;;;8.67;7.60;;;20.80;99.90;;;;;;5108926;27;20439;-80
2023/08/06 02:47:29;;;;;;;9.20;8.20;;;20.80;99.90;;;;;;5127741;27;20186;-77
2023/08/06 02:49:54;;;;;;;9.80;8.80;;;20.80;99.90;;;;;;5127293;27;20422;-80
2023/08/06 02:52:20;;;;;;;10.63;8.37;;;20.80;99.90;;;;;;5109186;27;20483;-77
2023/08/06 02:54:46;;;;;;;9.80;8.80;;;20.90;99.90;;;;;;5127186;27;20222;-79
2023/08/06 02:57:12;;;;;;;9.00;7.93;;;20.90;99.90;;;;;;5109169;27;20667;-77
2023/08/06 02:59:38;;;;;;;15.93;9.93;;;20.90;99.90;;;;;;5108681;27;20435;-80
2023/08/06 03:02:04;;;;;;;11.80;10.23;;;21.00;99.90;;;;;;5127550;27;20884;-77
2023/08/06 03:04:30;;;;;;;10.80;9.17;;;21.00;99.90;;;;;;5108728;27;20763;-77
2023/08/06 03:06:56;;;;;;;11.23;10.10;;;21.00;99.90;;;;;;5127090;27;20434;-77
2023/08/06 03:09:22;;;;;;;11.90;9.77;;;21.10;99.90;;;;;;5126972;27;20209;-79
2023/08/06 03:11:47;;;;;;;10.47;9.47;;;21.10;99.90;;;;;;5127169;27;20682;-78
2023/08/06 03:14:13;;;;;;;10.90;9.80;;;21.10;99.90;;;;;;5108548;27;20604;-79
2023/08/06 03:16:40;;;;;;;12.27;11.00;;;21.10;99.90;;;;;;5126983;27;20254;-77
2023/08/06 03:19:05;;;;;;;12.83;11.53;;;21.10;99.90;;;;;;5127049;27;20174;-79
2023/08/06 03:21:31;;;;;;;11.13;10.13;;;21.10;99.90;;;;;;5127094;27;20419;-78
2023/08/06 03:23:56;;;;;;;13.13;11.07;;;21.10;99.90;;;;;;5127105;27;20237;-79
2023/08/06 03:26:22;;;;;;;11.50;10.40;;;21.10;99.90;;;;;;5126893;27;20224;-77
2023/08/06 03:28:48;;;;;;;11.33;9.63;;;21.10;99.90;;;;;;5127204;27;20241;-79
2023/08/06 03:31:14;;;;;;;11.53;10.33;;;21.10;99.90;;;;;;5108036;27;20527;-77
2023/08/06 03:33:39;;;;;;;11.00;9.90;;;21.20;99.90;;;;;;5108209;27;20442;-77
2023/08/06 03:36:05;;;;;;;12.07;10.77;;;21.20;99.90;;;;;;5126800;27;20463;-79
2023/08/06 03:38:31;;;;;;;11.50;10.20;;;21.10;99.90;;;;;;5126172;27;20171;-79
2023/08/06 03:40:57;;;;;;;12.33;11.13;;;21.10;99.90;;;;;;5125558;27;20419;-80
2023/08/06 03:43:22;;;;;;;11.70;10.50;;;21.10;99.90;;;;;;5107866;27;20687;-79
2023/08/06 03:45:48;;;;;;;11.50;10.40;;;21.10;99.90;;;;;;5107686;27;20575;-77
2023/08/06 03:48:14;;;;;;;12.30;10.03;;;21.00;99.90;;;;;;5126901;27;20418;-79
2023/08/06 03:50:40;;;;;;;9.10;8.20;;;21.00;99.90;;;;;;5126031;27;20187;-77
2023/08/06 03:53:06;;;;;;;10.20;9.20;;;21.00;99.90;;;;;;5108384;27;20648;-77
2023/08/06 03:55:32;;;;;;;8.60;7.70;;;20.90;99.90;;;;;;5126211;27;20438;-79
2023/08/06 03:57:57;;;;;;;7.50;6.63;;;20.90;99.90;;;;;;5107995;28;20187;-79
2023/08/06 04:00:23;;;;;;;9.57;8.20;;;20.80;99.90;;;;;;5107821;27;20330;-79
2023/08/06 04:02:49;;;;;;;8.83;7.90;;;20.80;99.90;;;;;;5126413;27;20211;-79
2023/08/06 04:05:16;;;;;;;8.70;7.80;;;20.80;99.90;;;;;;5107585;28;20216;-79
2023/08/06 04:07:42;;;;;;;9.00;8.10;;;20.80;99.90;;;;;;5108291;28;20753;-77
2023/08/06 04:10:08;;;;;;;9.17;8.37;;;20.80;99.90;;;;;;5126110;27;20451;-79
2023/08/06 04:12:36;;;;;;;9.57;8.63;;;20.80;99.90;;;;;;5107690;28;20517;-80
2023/08/06 04:15:03;;;;;;;8.83;7.90;;;20.80;99.90;;;;;;5107595;28;20443;-80
2023/08/06 04:17:29;;;;;;;9.13;8.27;;;20.80;99.90;;;;;;5126509;27;20423;-77
2023/08/06 04:19:58;;;;;;;8.93;8.03;;;20.70;99.90;;;;;;5129680;27;20458;-77
2023/08/06 04:22:23;;;;;;;9.57;8.03;;;20.70;99.90;;;;;;5130811;27;20536;-79
2023/08/06 04:24:49;;;;;;;9.63;7.23;;;20.70;99.90;;;;;;5111812;27;20426;-79
2023/08/06 04:27:15;;;;;;;9.83;7.47;;;20.60;99.90;;;;;;5112332;27;20191;-80
2023/08/06 04:29:42;;;;;;;10.60;8.07;;;20.60;99.90;;;;;;5111453;27;20314;-77
2023/08/06 04:32:10;;;;;;;7.77;6.97;;;20.50;99.90;;;;;;5111781;27;20434;-77
2023/08/06 04:34:36;;;;;;;8.27;7.17;;;20.50;99.90;;;;;;5130399;27;20465;-80
2023/08/06 04:37:03;;;;;;;8.00;7.07;;;20.50;99.90;;;;;;5111792;27;20422;-77
2023/08/06 04:39:29;;;;;;;9.93;7.60;;;20.60;99.90;;;;;;5129859;27;20752;-76
2023/08/06 04:41:57;;;;;;;9.27;7.80;;;20.60;99.90;;;;;;5110983;27;20976;-76
2023/08/06 04:44:23;;;;;;;9.70;8.70;;;20.50;99.90;;;;;;5129928;27;20469;-80
2023/08/06 04:46:49;;;;;;;11.93;9.57;;;20.50;99.90;;;;;;5130241;27;20948;-79
2023/08/06 04:49:15;;;;;;;9.30;8.30;;;20.50;99.90;;;;;;5111524;27;20643;-80
2023/08/06 04:51:41;;;;;;;10.47;9.10;;;20.50;99.90;;;;;;5111711;27;20430;-77
2023/08/06 04:54:07;;;;;;;10.23;9.17;;;20.50;99.90;;;;;;5130048;27;20171;-80
2023/08/06 04:56:32;;;;;;;11.23;9.53;;;20.50;99.90;;;;;;5129647;27;20178;-77
2023/08/06 04:58:59;;;;;;;9.80;8.80;;;;;;;;;;5130353;27;20282;-80
2023/08/06 05:01:25;;;;;;;11.90;9.87;;;20.60;99.90;;;;;;5111188;27;20190;-80
2023/08/06 05:03:51;;;;;;;;;;;20.60;99.90;;;;;;5111201;27;20458;-79
2023/08/06 05:06:16;;;;;;;13.07;11.20;;;20.50;99.90;;;;;;5111021;27;19919;-75
2023/08/06 05:08:42;;;;;;;14.43;11.77;;;20.50;99.90;;;;;;5130127;27;20432;-75
2023/08/06 05:11:08;;;;;;;14.80;12.07;;;20.50;99.90;;;;;;5110565;27;20171;-81
2023/08/06 05:13:34;;;;;;;16.00;12.80;;;20.50;99.90;;;;;;5130034;27;20175;-76
2023/08/06 05:16:00;;;;;;;16.50;13.80;;;20.50;99.90;;;;;;5110833;27;20431;-75
2023/08/06 05:18:26;;;;;;;14.20;12.70;;;20.50;99.90;;;;;;5129782;27;20171;-75
2023/08/06 05:20:51;;;;;;;15.47;13.80;;;20.50;99.90;;;;;;5128883;27;20317;-79
2023/08/06 05:23:17;;;;;;;15.63;12.73;;;20.60;99.90;;;;;;5129343;27;20222;-80
2023/08/06 05:25:43;;;;;;;17.07;13.70;;;20.60;99.90;;;;;;5129029;27;20195;-75
2023/08/06 05:28:09;;;;;;;26.93;24.53;;;20.70;99.90;;;;;;5111133;27;20233;-75
2023/08/06 05:30:38;;;;;;;17.17;13.80;;;20.70;99.90;;;;;;5129183;27;20198;-80
2023/08/06 05:33:04;;;;;;;15.70;13.90;;;20.70;99.90;;;;;;5110334;27;20206;-75
2023/08/06 05:35:30;;;;;;;16.37;14.10;;;20.70;99.90;;;;;;5128959;27;20443;-75
2023/08/06 05:37:56;;;;;;;16.77;14.10;;;20.70;99.90;;;;;;5129369;27;20450;-80
2023/08/06 05:40:22;;;;;;;18.00;13.50;;;20.70;99.90;;;;;;5110279;27;20202;-75
2023/08/06 05:42:48;;;;;;;16.83;14.00;;;20.70;99.90;;;;;;5108929;27;20986;-75
2023/08/06 05:45:14;;;;;;;19.07;15.13;;;20.70;99.90;;;;;;5110198;27;20510;-80
2023/08/06 05:47:40;;;;;;;16.40;13.57;;;20.60;99.90;;;;;;5110121;27;20434;-80
2023/08/06 05:50:07;;;;;;;15.50;13.70;;;20.60;99.90;;;;;;5129032;27;20419;-80
2023/08/06 05:52:32;;;;;;;16.47;13.77;;;20.60;99.90;;;;;;5128586;27;20171;-76
2023/08/06 05:54:58;;;;;;;14.87;12.83;;;20.60;99.90;;;;;;5127604;27;20427;-79
2023/08/06 05:57:24;;;;;;;16.43;13.50;;;20.60;99.90;;;;;;5110198;27;20228;-80
2023/08/06 05:59:50;;;;;;;15.43;13.60;;;20.60;99.90;;;;;;5128153;27;20430;-75
2023/08/06 06:02:16;;;;;;;15.73;13.63;;;20.60;99.90;;;;;;5110311;27;20175;-80
2023/08/06 06:04:41;;;;;;;16.70;13.77;;;20.60;99.90;;;;;;5109365;27;20198;-80
2023/08/06 06:07:07;;;;;;;15.80;12.40;;;20.60;99.90;;;;;;5109056;27;20438;-80
2023/08/06 06:09:33;;;;;;;16.23;13.10;;;20.70;99.90;;;;;;5109426;27;20597;-75
2023/08/06 06:11:59;;;;;;;15.63;13.47;;;20.80;99.90;;;;;;5127531;27;20533;-75
2023/08/06 06:14:25;;;;;;;15.90;13.53;;;20.80;99.90;;;;;;5126579;27;20514;-84
2023/08/06 06:16:51;;;;;;;14.87;12.00;;;20.90;99.90;;;;;;5109672;27;20587;-75
2023/08/06 06:19:16;;;;;;;16.17;12.70;;;20.90;99.90;;;;;;5109213;27;20653;-75
2023/08/06 06:21:42;;;;;;;13.60;11.40;;;21.00;99.90;;;;;;5126521;27;20938;-78
2023/08/06 06:24:08;;;;;;;10.90;9.80;;;21.10;99.90;;;;;;5107572;27;20545;-79
2023/08/06 06:26:33;;;;;;;13.00;10.37;;;21.10;99.90;;;;;;5107524;27;20178;-76
2023/08/06 06:28:59;;;;;;;17.80;12.63;;;21.20;99.90;;;;;;5125840;27;21099;-76
2023/08/06 06:31:25;;;;;;;12.10;10.33;;;21.20;99.90;;;;;;5125978;27;20707;-78
2023/08/06 06:33:53;;;;;;;14.70;10.43;;;21.20;99.90;;;;;;5126334;27;20395;-80
2023/08/06 06:36:19;;;;;;;10.90;9.80;;;21.20;99.90;;;;;;5107812;27;20313;-75
2023/08/06 06:38:44;;;;;;;9.70;8.73;;;21.10;99.90;;;;;;5109500;27;20406;-81
2023/08/06 06:41:10;;;;;;;9.13;7.90;;;21.00;99.90;;;;;;5126027;27;20279;-79
2023/08/06 06:43:38;;;;;;;9.47;8.23;;;21.00;99.90;;;;;;5107562;27;20383;-78
2023/08/06 06:46:04;;;;;;;7.90;7.17;;;21.10;99.90;;;;;;5106387;27;20901;-79
2023/08/06 06:48:32;;;;;;;8.93;8.03;;;21.10;99.90;;;;;;5107895;27;20543;-78
2023/08/06 06:50:58;;;;;;;9.37;7.50;;;21.20;99.90;;;;;;5125793;27;20179;-74
2023/08/06 06:53:30;;;;;;;8.80;7.10;;;21.30;99.90;;;;;;5107710;27;20407;-78
2023/08/06 06:56:05;;;;;;;7.40;5.87;;;21.30;99.90;;;;;;5125537;27;20419;-75
2023/08/06 06:58:33;;;;;;;5.97;5.37;;;21.40;99.90;;;;;;5125979;27;20403;-75
2023/08/06 07:00:59;;;;;;;5.73;5.03;;;21.40;99.90;;;;;;5125269;27;20426;-80
2023/08/06 07:03:25;;;;;;;5.77;5.27;;;21.50;99.90;;;;;;5107702;27;20998;-76
2023/08/06 07:05:51;;;;;;;6.10;4.87;;;21.50;99.90;;;;;;5107041;27;20205;-76
2023/08/06 07:08:17;;;;;;;6.73;5.53;;;21.50;99.90;;;;;;5107465;27;20194;-76
2023/08/06 07:10:43;;;;;;;4.90;4.50;;;21.50;99.90;;;;;;5125571;27;20614;-76
2023/08/06 07:13:09;;;;;;;5.33;4.20;;;21.50;99.90;;;;;;5126153;27;20661;-79
2023/08/06 07:15:36;;;;;;;4.00;3.60;;;21.50;99.90;;;;;;5108038;27;20423;-75
2023/08/06 07:18:02;;;;;;;5.03;3.17;;;21.60;99.90;;;;;;5108710;27;20423;-79
2023/08/06 07:20:31;;;;;;;4.00;3.70;;;21.60;99.90;;;;;;5108399;27;20455;-76
2023/08/06 07:22:58;;;;;;;3.17;2.97;;;21.50;99.90;;;;;;5127410;27;20566;-81
2023/08/06 07:25:24;;;;;;;3.73;2.70;;;21.50;99.90;;;;;;5107691;27;20494;-77
2023/08/06 07:27:50;;;;;;;3.77;2.83;;;21.50;99.90;;;;;;5108561;27;20662;-76
2023/08/06 07:30:16;;;;;;;2.70;2.50;;;21.50;99.90;;;;;;5108021;27;20190;-80
2023/08/06 07:32:43;;;;;;;3.43;3.13;;;21.40;99.90;;;;;;5127267;27;20182;-79
2023/08/06 07:35:12;;;;;;;3.40;2.47;;;21.40;99.90;;;;;;5108355;27;20715;-76
2023/08/06 07:37:38;;;;;;;3.70;2.97;;;21.40;99.90;;;;;;5108849;27;20793;-76
2023/08/06 07:40:05;;;;;;;4.43;3.23;;;21.40;99.90;;;;;;5126624;27;20415;-76
2023/08/06 07:42:31;;;;;;;3.20;2.70;;;21.40;99.90;;;;;;5108564;27;20949;-79
2023/08/06 07:44:58;;;;;;;3.03;2.20;;;21.50;99.90;;;;;;5106956;27;20435;-79
2023/08/06 07:47:24;;;;;;;2.90;2.70;;;21.60;99.90;;;;;;5126776;27;20431;-76
2023/08/06 07:49:50;;;;;;;2.30;2.10;;;21.60;99.90;;;;;;5126718;27;20919;-77
2023/08/06 07:52:16;;;;;;;2.73;1.90;;;21.60;99.90;;;;;;5126709;27;20262;-77
2023/08/06 07:54:42;;;;;;;1.90;1.80;;;21.50;99.90;;;;;;5107329;27;20950;-78
2023/08/06 07:57:08;;;;;;;1.87;1.77;;;21.30;99.90;;;;;;5108449;27;20296;-77
2023/08/06 07:59:34;;;;;;;2.70;1.50;;;21.40;99.90;;;;;;5126140;27;20446;-80
2023/08/06 08:02:00;;;;;;;2.03;1.47;;;21.40;99.90;;;;;;5126867;27;20423;-80
2023/08/06 08:04:26;;;;;;;1.50;1.23;;;21.30;99.90;;;;;;5107899;28;20224;-78
2023/08/06 08:06:51;;;;;;;1.13;0.97;;;21.20;99.90;;;;;;5126508;28;20926;-76
2023/08/06 08:09:18;;;;;;;0.93;0.90;;;21.30;99.90;;;;;;5126354;28;20220;-78
2023/08/06 08:11:43;;;;;;;1.90;1.03;;;21.30;99.90;;;;;;5126456;28;20178;-77
2023/08/06 08:14:09;;;;;;;0.90;0.90;;;21.40;99.90;;;;;;5126800;28;20403;-78
2023/08/06 08:16:35;;;;;;;1.00;0.90;;;21.50;99.90;;;;;;5107725;28;20655;-77
2023/08/06 08:19:01;;;;;;;3.57;1.90;;;21.60;99.90;;;;;;5126399;28;20533;-79
2023/08/06 08:21:26;;;;;;;1.00;0.80;;;21.70;99.90;;;;;;5107766;28;20219;-80
2023/08/06 08:23:52;;;;;;;0.50;0.50;;;21.70;99.90;;;;;;5124771;28;20454;-80
2023/08/06 08:26:18;;;;;;;3.10;0.77;;;21.80;99.90;;;;;;5124619;28;20179;-81
2023/08/06 08:28:44;;;;;;;0.60;0.60;;;21.80;99.90;;;;;;5124592;28;20399;-77
2023/08/06 08:31:11;;;;;;;0.70;0.70;;;21.80;99.90;;;;;;5105746;28;20463;-77
2023/08/06 08:33:38;;;;;;;0.70;0.67;;;21.90;99.90;;;;;;5106201;28;20418;-80
2023/08/06 08:36:04;;;;;;;1.73;0.60;;;22.00;99.90;;;;;;5105760;28;20445;-79
2023/08/06 08:38:30;;;;;;;1.27;0.50;;;22.00;99.90;;;;;;5124786;28;20453;-80
2023/08/06 08:40:56;;;;;;;0.57;0.57;;;22.00;99.90;;;;;;5125678;28;20443;-80
2023/08/06 08:43:22;;;;;;;1.20;0.47;;;22.10;99.90;;;;;;5107669;28;20585;-77
2023/08/06 08:45:50;;;;;;;1.70;0.60;;;22.10;99.90;;;;;;5107069;28;20449;-78
2023/08/06 08:48:17;;;;;;;2.10;0.63;;;22.20;99.90;;;;;;5125421;28;20447;-80
2023/08/06 08:50:49;;;;;;;0.50;0.50;;;22.20;99.90;;;;;;5107539;28;20439;-79
2023/08/06 08:53:16;;;;;;;0.40;0.40;;;22.20;99.90;;;;;;5125002;28;21068;-77
2023/08/06 08:55:44;;;;;;;0.50;0.47;;;22.10;99.90;;;;;;5124110;28;20423;-77
2023/08/06 08:58:10;;;;;;;1.97;0.60;;;22.10;99.90;;;;;;5105799;28;20434;-80
2023/08/06 09:00:36;;;;;;;0.90;0.60;;;22.10;99.90;;;;;;5124180;28;21000;-77
2023/08/06 09:03:06;;;;;;;1.00;0.37;;;22.10;99.90;;;;;;5124626;28;20815;-80
2023/08/06 09:05:33;;;;;;;1.17;0.50;;;22.10;99.90;;;;;;5126663;27;20426;-77
2023/08/06 09:08:12;;;;;;;0.40;0.40;;;22.10;99.90;;;;;;5109807;27;20430;-79
2023/08/06 09:10:40;;;;;;;1.47;0.40;;;22.00;99.90;;;;;;5109580;27;20438;-78
2023/08/06 09:13:06;;;;;;;0.40;0.40;;;21.90;99.90;;;;;;5109751;27;20431;-77
2023/08/06 09:15:33;;;;;;;0.50;0.40;;;21.80;99.90;;;;;;5127473;27;20422;-79
2023/08/06 09:17:59;;;;;;;0.40;0.30;;;21.80;99.90;;;;;;5128461;27;20229;-78
2023/08/06 09:20:25;;;;;;;0.40;0.30;;;21.80;99.90;;;;;;5127500;27;20782;-77
2023/08/06 09:22:53;;;;;;;0.87;0.40;;;21.80;99.90;;;;;;5109514;27;20549;-78
2023/08/06 09:25:24;;;;;;;0.67;0.40;;;21.90;99.90;;;;;;5109417;27;20202;-77
2023/08/06 09:27:54;;;;;;;0.60;0.50;;;21.80;99.90;;;;;;5129630;27;20782;-77
2023/08/06 09:30:33;;;;;;;0.60;0.40;;;21.80;99.90;;;;;;5110320;27;20442;-80
2023/08/06 09:33:00;;;;;;;0.63;0.50;;;21.90;99.90;;;;;;5111332;27;20423;-77
2023/08/06 09:35:30;;;;;;;0.50;0.40;;;21.80;99.90;;;;;;5129013;27;21149;-77
2023/08/06 09:38:10;;;;;;;0.50;0.40;;;21.90;99.90;;;;;;5129262;27;20426;-77
2023/08/06 09:40:37;;;;;;;2.10;0.50;;;21.90;99.90;;;;;;5110609;27;20446;-80
2023/08/06 09:43:03;;;;;;;0.40;0.30;;;21.90;99.90;;;;;;5129198;27;20828;-80
2023/08/06 09:45:34;;;;;;;1.40;0.57;;;21.90;99.90;;;;;;5110093;27;20434;-80
2023/08/06 09:48:03;;;;;;;0.50;0.50;;;22.00;99.90;;;;;;5109668;27;20437;-79
2023/08/06 09:50:31;;;;;;;0.50;0.40;;;22.00;99.90;;;;;;5110070;27;20536;-77
2023/08/06 09:52:58;;;;;;;1.03;0.40;;;22.00;99.90;;;;;;5110697;27;20492;-80
2023/08/06 09:55:26;;;;;;;0.50;0.40;;;21.90;99.90;;;;;;5128576;27;20427;-80
2023/08/06 09:57:53;;;;;;;0.60;0.50;;;21.90;99.90;;;;;;5110045;27;20423;-77
2023/08/06 10:00:19;;;;;;;0.60;0.60;;;21.90;99.90;;;;;;5109866;27;20439;-79
2023/08/06 10:02:46;;;;;;;0.40;0.40;;;22.10;99.90;;;;;;5129083;27;20478;-80
2023/08/06 10:05:12;;;;;;;0.80;0.70;;;22.20;99.90;;;;;;5128614;27;20847;-77
2023/08/06 10:07:39;;;;;;;0.80;0.47;;;22.20;99.90;;;;;;5129075;27;20650;-80
2023/08/06 10:10:06;;;;;;;0.50;0.43;;;22.20;99.90;;;;;;5109746;27;20431;-77
2023/08/06 10:12:39;;;;;;;0.60;0.53;;;22.20;99.90;;;;;;5110114;27;20938;-77
2023/08/06 10:15:09;;;;;;;0.63;0.63;;;22.30;99.90;;;;;;5128427;27;20506;-77
2023/08/06 10:17:37;;;;;;;0.80;0.80;;;22.20;99.90;;;;;;5109219;27;20430;-79
2023/08/06 10:20:06;;;;;;;1.17;0.50;;;22.20;99.90;;;;;;5109210;27;20463;-80
2023/08/06 10:22:33;;;;;;;0.63;0.63;;;22.20;99.90;;;;;;5128513;27;20926;-81
2023/08/06 10:25:04;;;;;;;0.60;0.57;;;22.20;99.90;;;;;;5109386;27;20446;-80
2023/08/06 10:27:31;;;;;;;0.70;0.60;;;22.10;99.90;;;;;;5128579;27;20505;-77
2023/08/06 10:30:23;;;;;;;1.27;0.70;;;22.10;99.90;;;;;;5127886;27;20683;-79
2023/08/06 10:32:50;;;;;;;2.27;0.67;;;22.10;99.90;;;;;;5128459;27;20499;-77
2023/08/06 10:35:37;;;;;;;0.70;0.70;;;22.20;99.90;;;;;;5128038;27;20693;-80
2023/08/06 10:38:07;;;;;;;0.80;0.70;;;22.20;99.90;;;;;;5110902;27;20725;-78
2023/08/06 10:40:33;;;;;;;0.60;0.60;;;22.30;99.90;;;;;;5127620;27;20422;-80
2023/08/06 10:43:03;;;;;;;1.07;0.80;;;22.30;99.90;;;;;;5128261;27;20467;-77
2023/08/06 10:45:30;;;;;;;1.47;0.80;;;22.30;99.90;;;;;;5127449;27;20500;-80
2023/08/06 10:47:57;;;;;;;1.30;0.90;;;22.30;99.90;;;;;;5109254;27;20442;-80
2023/08/06 10:50:24;;;;;;;1.40;0.90;;;22.30;99.90;;;;;;5108249;27;20916;-78
2023/08/06 10:52:50;;;;;;;1.33;0.90;;;22.30;99.90;;;;;;5127705;27;20765;-78
2023/08/06 10:55:29;;;;;;;1.07;1.07;;;22.40;99.90;;;;;;5109066;27;20465;-79
2023/08/06 10:57:56;;;;;;;1.30;1.20;;;22.50;99.90;;;;;;5127678;27;20436;-77
2023/08/06 11:00:25;;;;;;;1.20;1.10;;;22.50;99.90;;;;;;5108697;27;20432;-78
2023/08/06 11:02:55;;;;;;;1.87;1.03;;;22.60;99.90;;;;;;5109157;27;20462;-80
2023/08/06 11:05:20;;;;;;;0.90;0.90;;;22.50;99.90;;;;;;5108747;27;20442;-80
2023/08/06 11:07:48;;;;;;;2.33;0.90;;;22.40;99.90;;;;;;5109130;27;20437;-78
2023/08/06 11:10:14;;;;;;;0.90;0.90;;;22.40;99.90;;;;;;5108423;27;20222;-80
2023/08/06 11:12:40;;;;;;;1.00;0.90;;;22.40;99.90;;;;;;5108649;27;20550;-80
2023/08/06 11:15:07;;;;;;;0.97;0.87;;;22.40;99.90;;;;;;5108560;27;20445;-79
2023/08/06 11:17:34;;;;;;;1.53;1.00;;;22.30;99.90;;;;;;5108989;27;20534;-77
2023/08/06 11:20:03;;;;;;;1.60;1.50;;;22.30;99.90;;;;;;5108414;27;21130;-80
2023/08/06 11:22:29;;;;;;;1.10;1.00;;;22.40;99.90;;;;;;5127302;27;20649;-80
2023/08/06 11:24:55;;;;;;;1.00;0.90;;;22.40;99.90;;;;;;5126868;27;20484;-77
2023/08/06 11:27:21;;;;;;;0.80;0.80;;;22.40;99.90;;;;;;5108585;27;20431;-80
2023/08/06 11:29:47;;;;;;;3.37;1.00;;;22.50;99.90;;;;;;5126812;27;20411;-78
2023/08/06 11:32:13;;;;;;;1.43;1.33;;;22.50;99.90;;;;;;5127197;27;20186;-78
2023/08/06 11:34:40;;;;;;;1.43;0.80;;;22.50;99.90;;;;;;5127017;27;20191;-78
2023/08/06 11:37:07;;;;;;;0.90;0.90;;;22.60;99.90;;;;;;5126925;27;20919;-77
2023/08/06 11:39:33;;;;;;;1.30;1.20;;;22.60;99.90;;;;;;5126384;27;20426;-77
2023/08/06 11:42:02;;;;;;;2.00;1.00;;;22.70;99.90;;;;;;5126827;27;20431;-77
2023/08/06 11:44:32;;;;;;;1.00;0.90;;;22.70;99.90;;;;;;5126546;27;20551;-79
2023/08/06 11:47:00;;;;;;;1.00;1.00;;;22.80;99.90;;;;;;5108261;27;20423;-77
2023/08/06 11:49:47;;;;;;;1.20;1.10;;;22.80;99.90;;;;;;5126743;27;20415;-81
2023/08/06 11:52:25;;;;;;;1.03;1.03;;;22.90;99.90;;;;;;5108004;27;20474;-78
2023/08/06 11:55:07;;;;;;;1.13;1.03;;;23.00;99.90;;;;;;5126221;27;20427;-80
2023/08/06 11:57:36;;;;;;;1.20;1.10;;;23.10;99.90;;;;;;5108181;27;20428;-77
2023/08/06 12:00:10;;;;;;;1.33;1.07;;;23.10;99.90;;;;;;5126360;27;21112;-78
2023/08/06 12:02:37;;;;;;;1.23;1.13;;;23.10;99.90;;;;;;5126812;27;20927;-77
2023/08/06 12:05:04;;;;;;;1.30;1.20;;;23.10;99.90;;;;;;5126148;27;20439;-77
2023/08/06 12:07:38;;;;;;;1.13;1.03;;;23.10;99.90;;;;;;5108246;28;20681;-77
2023/08/06 12:10:04;;;;;;;1.27;1.17;;;23.10;99.90;;;;;;5125914;28;20429;-77
2023/08/06 12:12:31;;;;;;;2.80;1.10;;;23.10;99.90;;;;;;5108220;28;20474;-77
2023/08/06 12:14:57;;;;;;;1.57;1.20;;;23.00;99.90;;;;;;5108079;28;20428;-80
2023/08/06 12:17:26;;;;;;;0.90;0.90;;;23.00;99.90;;;;;;5108326;28;21112;-81
2023/08/06 12:19:51;;;;;;;1.03;0.93;;;22.90;99.90;;;;;;5107465;28;20479;-80
2023/08/06 12:22:18;;;;;;;2.10;1.30;;;22.90;99.90;;;;;;5126611;28;20420;-80
2023/08/06 12:24:46;;;;;;;0.87;0.87;;;22.90;99.90;;;;;;5107595;28;20321;-78
2023/08/06 12:27:12;;;;;;;3.23;1.27;;;22.80;99.90;;;;;;5126921;28;20487;-80
2023/08/06 12:29:43;;;;;;;2.00;0.73;;;22.80;99.90;;;;;;5126404;28;20462;-80
2023/08/06 12:34:54;;;;;;;1.30;1.20;;;22.80;99.90;;;;;;5126630;28;20492;-80
2023/08/06 12:37:19;;;;;;;2.87;1.00;;;22.90;99.90;;;;;;5108122;28;20706;-78
2023/08/06 12:39:45;;;;;;;1.20;1.10;;;23.00;99.90;;;;;;5127334;27;20247;-80
2023/08/06 12:42:11;;;;;;;0.70;0.70;;;23.00;99.90;;;;;;5130662;27;20262;-77
2023/08/06 12:44:36;;;;;;;1.20;1.10;;;23.10;99.90;;;;;;5130179;27;20718;-80